sensor_id;sensor_type;location;lat;lon;timestamp;P1;durP1;ratioP1;P2;durP2;ratioP2
45043;SDS011;30784;48.490;9.688;2022-07-23T00:02:05;6.50;;;3.13;;
45043;SDS011;30784;48.490;9.688;2022-07-23T00:04:31;7.28;;;3.28;;
45043;SDS011;30784;48.490;9.688;2022-07-23T00:06:57;8.15;;;3.45;;
45043;SDS011;30784;48.490;9.688;2022-07-23T00:09:23;6.43;;;3.20;;
45043;SDS011;30784;48.490;9.688;2022-07-23T00:11:48;6.47;;;3.20;;
45043;SDS011;30784;48.490;9.688;2022-07-23T00:14:14;6.22;;;3.10;;
45043;SDS011;30784;48.490;9.688;2022-07-23T00:16:40;6.85;;;3.30;;
45043;SDS011;30784;48.490;9.688;2022-07-23T00:19:05;6.78;;;3.22;;
45043;SDS011;30784;48.490;9.688;2022-07-23T00:21:31;7.57;;;3.25;;
45043;SDS011;30784;48.490;9.688;2022-07-23T00:23:56;6.43;;;3.20;;
45043;SDS011;30784;48.490;9.688;2022-07-23T00:26:22;6.75;;;3.28;;
45043;SDS011;30784;48.490;9.688;2022-07-23T00:28:48;6.57;;;3.25;;
45043;SDS011;30784;48.490;9.688;2022-07-23T00:31:14;6.40;;;3.33;;
45043;SDS011;30784;48.490;9.688;2022-07-23T00:33:40;7.68;;;3.50;;
45043;SDS011;30784;48.490;9.688;2022-07-23T00:36:06;7.10;;;3.55;;
45043;SDS011;30784;48.490;9.688;2022-07-23T00:38:32;7.22;;;3.30;;
45043;SDS011;30784;48.490;9.688;2022-07-23T00:40:57;6.95;;;3.60;;
45043;SDS011;30784;48.490;9.688;2022-07-23T00:43:23;8.70;;;3.60;;
45043;SDS011;30784;48.490;9.688;2022-07-23T00:45:50;7.82;;;3.50;;
45043;SDS011;30784;48.490;9.688;2022-07-23T00:48:15;6.47;;;3.35;;
45043;SDS011;30784;48.490;9.688;2022-07-23T00:50:42;7.88;;;3.60;;
45043;SDS011;30784;48.490;9.688;2022-07-23T00:53:08;6.80;;;3.47;;
45043;SDS011;30784;48.490;9.688;2022-07-23T00:55:35;7.22;;;2.90;;
45043;SDS011;30784;48.490;9.688;2022-07-23T00:58:01;7.13;;;3.45;;
45043;SDS011;30784;48.490;9.688;2022-07-23T01:00:27;7.78;;;3.70;;
45043;SDS011;30784;48.490;9.688;2022-07-23T01:02:53;6.25;;;3.38;;
45043;SDS011;30784;48.490;9.688;2022-07-23T01:05:18;7.18;;;3.80;;
45043;SDS011;30784;48.490;9.688;2022-07-23T01:07:47;7.07;;;3.45;;
45043;SDS011;30784;48.490;9.688;2022-07-23T01:10:14;6.88;;;3.63;;
45043;SDS011;30784;48.490;9.688;2022-07-23T01:12:58;7.00;;;3.70;;
45043;SDS011;30784;48.490;9.688;2022-07-23T01:15:25;6.45;;;3.30;;
45043;SDS011;30784;48.490;9.688;2022-07-23T01:17:51;7.28;;;3.63;;
45043;SDS011;30784;48.490;9.688;2022-07-23T01:20:17;6.80;;;3.45;;
45043;SDS011;30784;48.490;9.688;2022-07-23T01:22:43;7.85;;;3.40;;
45043;SDS011;30784;48.490;9.688;2022-07-23T01:25:09;6.85;;;3.65;;
45043;SDS011;30784;48.490;9.688;2022-07-23T01:27:35;6.53;;;3.50;;
45043;SDS011;30784;48.490;9.688;2022-07-23T01:30:02;6.25;;;3.20;;
45043;SDS011;30784;48.490;9.688;2022-07-23T01:32:28;7.57;;;3.80;;
45043;SDS011;30784;48.490;9.688;2022-07-23T01:34:54;7.43;;;3.72;;
45043;SDS011;30784;48.490;9.688;2022-07-23T01:37:20;6.70;;;3.50;;
45043;SDS011;30784;48.490;9.688;2022-07-23T01:39:45;7.25;;;3.55;;
45043;SDS011;30784;48.490;9.688;2022-07-23T01:42:11;6.65;;;3.72;;
45043;SDS011;30784;48.490;9.688;2022-07-23T01:44:37;7.07;;;3.53;;
45043;SDS011;30784;48.490;9.688;2022-07-23T01:47:02;7.40;;;3.72;;
45043;SDS011;30784;48.490;9.688;2022-07-23T01:49:28;8.45;;;3.97;;
45043;SDS011;30784;48.490;9.688;2022-07-23T01:51:54;7.75;;;3.40;;
45043;SDS011;30784;48.490;9.688;2022-07-23T01:54:26;7.43;;;3.85;;
45043;SDS011;30784;48.490;9.688;2022-07-23T01:56:53;7.32;;;4.00;;
45043;SDS011;30784;48.490;9.688;2022-07-23T01:59:19;6.90;;;3.53;;
45043;SDS011;30784;48.490;9.688;2022-07-23T02:01:44;7.10;;;3.88;;
45043;SDS011;30784;48.490;9.688;2022-07-23T02:04:10;9.00;;;4.00;;
45043;SDS011;30784;48.490;9.688;2022-07-23T02:06:36;8.38;;;4.45;;
45043;SDS011;30784;48.490;9.688;2022-07-23T02:09:01;8.40;;;4.50;;
45043;SDS011;30784;48.490;9.688;2022-07-23T02:11:29;7.57;;;3.95;;
45043;SDS011;30784;48.490;9.688;2022-07-23T02:13:54;7.68;;;3.72;;
45043;SDS011;30784;48.490;9.688;2022-07-23T02:16:20;6.90;;;3.80;;
45043;SDS011;30784;48.490;9.688;2022-07-23T02:18:46;7.25;;;3.67;;
45043;SDS011;30784;48.490;9.688;2022-07-23T02:21:12;7.13;;;3.50;;
45043;SDS011;30784;48.490;9.688;2022-07-23T02:23:38;6.47;;;3.25;;
45043;SDS011;30784;48.490;9.688;2022-07-23T02:26:03;6.78;;;3.50;;
45043;SDS011;30784;48.490;9.688;2022-07-23T02:28:29;6.60;;;3.35;;
45043;SDS011;30784;48.490;9.688;2022-07-23T02:30:55;7.30;;;3.45;;
45043;SDS011;30784;48.490;9.688;2022-07-23T02:33:20;6.47;;;3.47;;
45043;SDS011;30784;48.490;9.688;2022-07-23T02:35:46;7.25;;;3.70;;
45043;SDS011;30784;48.490;9.688;2022-07-23T02:38:12;8.38;;;3.60;;
45043;SDS011;30784;48.490;9.688;2022-07-23T02:40:37;7.03;;;4.00;;
45043;SDS011;30784;48.490;9.688;2022-07-23T02:43:03;6.53;;;3.33;;
45043;SDS011;30784;48.490;9.688;2022-07-23T02:45:29;7.90;;;3.50;;
45043;SDS011;30784;48.490;9.688;2022-07-23T02:47:54;7.38;;;3.28;;
45043;SDS011;30784;48.490;9.688;2022-07-23T02:50:20;7.35;;;3.70;;
45043;SDS011;30784;48.490;9.688;2022-07-23T02:52:46;7.82;;;3.53;;
45043;SDS011;30784;48.490;9.688;2022-07-23T02:55:11;7.47;;;3.30;;
45043;SDS011;30784;48.490;9.688;2022-07-23T02:57:37;7.75;;;3.38;;
45043;SDS011;30784;48.490;9.688;2022-07-23T03:00:03;6.82;;;3.42;;
45043;SDS011;30784;48.490;9.688;2022-07-23T03:02:31;6.60;;;3.30;;
45043;SDS011;30784;48.490;9.688;2022-07-23T03:04:57;6.80;;;3.53;;
45043;SDS011;30784;48.490;9.688;2022-07-23T03:07:26;7.50;;;3.72;;
45043;SDS011;30784;48.490;9.688;2022-07-23T03:09:51;7.00;;;3.70;;
45043;SDS011;30784;48.490;9.688;2022-07-23T03:12:17;7.50;;;3.85;;
45043;SDS011;30784;48.490;9.688;2022-07-23T03:14:43;7.20;;;3.70;;
45043;SDS011;30784;48.490;9.688;2022-07-23T03:17:09;7.90;;;4.28;;
45043;SDS011;30784;48.490;9.688;2022-07-23T03:19:34;7.30;;;3.78;;
45043;SDS011;30784;48.490;9.688;2022-07-23T03:22:01;6.90;;;3.63;;
45043;SDS011;30784;48.490;9.688;2022-07-23T03:24:27;7.32;;;3.60;;
45043;SDS011;30784;48.490;9.688;2022-07-23T03:27:13;8.02;;;3.55;;
45043;SDS011;30784;48.490;9.688;2022-07-23T03:29:38;8.45;;;3.95;;
45043;SDS011;30784;48.490;9.688;2022-07-23T03:32:04;8.48;;;4.10;;
45043;SDS011;30784;48.490;9.688;2022-07-23T03:34:30;7.18;;;3.53;;
45043;SDS011;30784;48.490;9.688;2022-07-23T03:36:55;8.50;;;4.50;;
45043;SDS011;30784;48.490;9.688;2022-07-23T03:39:21;6.65;;;3.72;;
45043;SDS011;30784;48.490;9.688;2022-07-23T03:41:46;7.68;;;4.10;;
45043;SDS011;30784;48.490;9.688;2022-07-23T03:44:12;6.82;;;3.95;;
45043;SDS011;30784;48.490;9.688;2022-07-23T03:46:38;7.13;;;3.70;;
45043;SDS011;30784;48.490;9.688;2022-07-23T03:49:03;7.15;;;3.85;;
45043;SDS011;30784;48.490;9.688;2022-07-23T03:51:29;7.88;;;4.10;;
45043;SDS011;30784;48.490;9.688;2022-07-23T03:53:54;8.20;;;4.28;;
45043;SDS011;30784;48.490;9.688;2022-07-23T03:56:20;7.00;;;3.88;;
45043;SDS011;30784;48.490;9.688;2022-07-23T03:58:46;7.97;;;4.28;;
45043;SDS011;30784;48.490;9.688;2022-07-23T04:01:12;7.40;;;4.10;;
45043;SDS011;30784;48.490;9.688;2022-07-23T04:03:38;7.25;;;4.15;;
45043;SDS011;30784;48.490;9.688;2022-07-23T04:06:04;7.18;;;3.70;;
45043;SDS011;30784;48.490;9.688;2022-07-23T04:08:30;7.28;;;4.18;;
45043;SDS011;30784;48.490;9.688;2022-07-23T04:10:55;8.07;;;4.47;;
45043;SDS011;30784;48.490;9.688;2022-07-23T04:13:21;7.95;;;4.10;;
45043;SDS011;30784;48.490;9.688;2022-07-23T04:15:47;7.65;;;3.97;;
45043;SDS011;30784;48.490;9.688;2022-07-23T04:18:12;7.65;;;4.03;;
45043;SDS011;30784;48.490;9.688;2022-07-23T04:20:38;9.07;;;4.53;;
45043;SDS011;30784;48.490;9.688;2022-07-23T04:23:04;9.52;;;4.85;;
45043;SDS011;30784;48.490;9.688;2022-07-23T04:25:29;7.80;;;4.38;;
45043;SDS011;30784;48.490;9.688;2022-07-23T04:27:55;7.50;;;4.45;;
45043;SDS011;30784;48.490;9.688;2022-07-23T04:30:20;9.40;;;4.72;;
45043;SDS011;30784;48.490;9.688;2022-07-23T04:32:46;8.18;;;4.63;;
45043;SDS011;30784;48.490;9.688;2022-07-23T04:35:12;7.65;;;4.47;;
45043;SDS011;30784;48.490;9.688;2022-07-23T04:37:37;8.20;;;4.38;;
45043;SDS011;30784;48.490;9.688;2022-07-23T04:40:03;7.78;;;3.90;;
45043;SDS011;30784;48.490;9.688;2022-07-23T04:42:29;8.60;;;4.13;;
45043;SDS011;30784;48.490;9.688;2022-07-23T04:44:55;8.23;;;4.55;;
45043;SDS011;30784;48.490;9.688;2022-07-23T04:47:21;7.47;;;4.32;;
45043;SDS011;30784;48.490;9.688;2022-07-23T04:49:47;8.07;;;4.18;;
45043;SDS011;30784;48.490;9.688;2022-07-23T04:52:12;8.50;;;4.40;;
45043;SDS011;30784;48.490;9.688;2022-07-23T04:54:40;8.45;;;4.38;;
45043;SDS011;30784;48.490;9.688;2022-07-23T04:57:05;8.13;;;4.60;;
45043;SDS011;30784;48.490;9.688;2022-07-23T04:59:31;7.32;;;4.18;;
45043;SDS011;30784;48.490;9.688;2022-07-23T05:01:57;9.18;;;4.50;;
45043;SDS011;30784;48.490;9.688;2022-07-23T05:04:22;8.18;;;4.35;;
45043;SDS011;30784;48.490;9.688;2022-07-23T05:06:48;8.88;;;4.38;;
45043;SDS011;30784;48.490;9.688;2022-07-23T05:09:13;7.00;;;4.03;;
45043;SDS011;30784;48.490;9.688;2022-07-23T05:11:39;8.05;;;4.43;;
45043;SDS011;30784;48.490;9.688;2022-07-23T05:14:05;7.72;;;4.03;;
45043;SDS011;30784;48.490;9.688;2022-07-23T05:16:30;7.20;;;3.88;;
45043;SDS011;30784;48.490;9.688;2022-07-23T05:18:56;9.32;;;3.90;;
45043;SDS011;30784;48.490;9.688;2022-07-23T05:21:21;7.07;;;3.70;;
45043;SDS011;30784;48.490;9.688;2022-07-23T05:23:47;8.82;;;3.60;;
45043;SDS011;30784;48.490;9.688;2022-07-23T05:26:13;7.20;;;3.58;;
45043;SDS011;30784;48.490;9.688;2022-07-23T05:28:38;6.50;;;3.42;;
45043;SDS011;30784;48.490;9.688;2022-07-23T05:31:04;7.45;;;3.80;;
45043;SDS011;30784;48.490;9.688;2022-07-23T05:33:30;8.18;;;3.92;;
45043;SDS011;30784;48.490;9.688;2022-07-23T05:36:02;9.32;;;4.50;;
45043;SDS011;30784;48.490;9.688;2022-07-23T05:38:29;8.27;;;4.40;;
45043;SDS011;30784;48.490;9.688;2022-07-23T05:40:56;7.60;;;3.55;;
45043;SDS011;30784;48.490;9.688;2022-07-23T05:43:22;6.68;;;3.60;;
45043;SDS011;30784;48.490;9.688;2022-07-23T05:45:47;7.25;;;3.72;;
45043;SDS011;30784;48.490;9.688;2022-07-23T05:48:13;7.63;;;3.85;;
45043;SDS011;30784;48.490;9.688;2022-07-23T05:50:38;9.07;;;4.22;;
45043;SDS011;30784;48.490;9.688;2022-07-23T05:53:04;7.35;;;3.83;;
45043;SDS011;30784;48.490;9.688;2022-07-23T05:55:30;8.10;;;3.63;;
45043;SDS011;30784;48.490;9.688;2022-07-23T06:01:18;6.97;;;3.80;;
45043;SDS011;30784;48.490;9.688;2022-07-23T06:03:44;7.80;;;4.00;;
45043;SDS011;30784;48.490;9.688;2022-07-23T06:06:09;7.05;;;3.78;;
45043;SDS011;30784;48.490;9.688;2022-07-23T06:08:35;6.93;;;3.95;;
45043;SDS011;30784;48.490;9.688;2022-07-23T06:11:00;7.32;;;4.07;;
45043;SDS011;30784;48.490;9.688;2022-07-23T06:13:26;8.10;;;3.80;;
45043;SDS011;30784;48.490;9.688;2022-07-23T06:15:52;7.10;;;4.00;;
45043;SDS011;30784;48.490;9.688;2022-07-23T06:18:17;6.80;;;3.35;;
45043;SDS011;30784;48.490;9.688;2022-07-23T06:20:43;7.47;;;3.95;;
45043;SDS011;30784;48.490;9.688;2022-07-23T06:23:08;9.73;;;4.30;;
45043;SDS011;30784;48.490;9.688;2022-07-23T06:25:34;7.57;;;3.72;;
45043;SDS011;30784;48.490;9.688;2022-07-23T06:28:00;7.72;;;3.72;;
45043;SDS011;30784;48.490;9.688;2022-07-23T06:30:25;7.63;;;4.00;;
45043;SDS011;30784;48.490;9.688;2022-07-23T06:32:51;7.93;;;3.80;;
45043;SDS011;30784;48.490;9.688;2022-07-23T06:35:16;6.65;;;3.50;;
45043;SDS011;30784;48.490;9.688;2022-07-23T06:37:42;7.18;;;3.75;;
45043;SDS011;30784;48.490;9.688;2022-07-23T06:40:08;7.32;;;3.72;;
45043;SDS011;30784;48.490;9.688;2022-07-23T06:42:35;7.45;;;3.90;;
45043;SDS011;30784;48.490;9.688;2022-07-23T06:45:04;7.03;;;3.47;;
45043;SDS011;30784;48.490;9.688;2022-07-23T06:47:31;7.57;;;3.55;;
45043;SDS011;30784;48.490;9.688;2022-07-23T06:49:56;7.07;;;3.78;;
45043;SDS011;30784;48.490;9.688;2022-07-23T06:52:22;6.75;;;3.67;;
45043;SDS011;30784;48.490;9.688;2022-07-23T06:54:48;6.95;;;3.70;;
45043;SDS011;30784;48.490;9.688;2022-07-23T06:57:14;7.07;;;3.90;;
45043;SDS011;30784;48.490;9.688;2022-07-23T06:59:39;7.57;;;3.90;;
45043;SDS011;30784;48.490;9.688;2022-07-23T07:02:06;7.18;;;3.85;;
45043;SDS011;30784;48.490;9.688;2022-07-23T07:04:33;7.75;;;3.72;;
45043;SDS011;30784;48.490;9.688;2022-07-23T07:06:59;6.25;;;3.40;;
45043;SDS011;30784;48.490;9.688;2022-07-23T07:09:24;6.95;;;3.58;;
45043;SDS011;30784;48.490;9.688;2022-07-23T07:11:50;7.30;;;3.53;;
45043;SDS011;30784;48.490;9.688;2022-07-23T07:14:16;7.32;;;4.00;;
45043;SDS011;30784;48.490;9.688;2022-07-23T07:16:41;7.68;;;4.15;;
45043;SDS011;30784;48.490;9.688;2022-07-23T07:19:07;7.15;;;3.88;;
45043;SDS011;30784;48.490;9.688;2022-07-23T07:21:33;6.68;;;3.55;;
45043;SDS011;30784;48.490;9.688;2022-07-23T07:23:58;6.85;;;3.88;;
45043;SDS011;30784;48.490;9.688;2022-07-23T07:26:24;7.45;;;3.50;;
45043;SDS011;30784;48.490;9.688;2022-07-23T07:28:50;7.22;;;3.90;;
45043;SDS011;30784;48.490;9.688;2022-07-23T07:31:16;8.25;;;3.63;;
45043;SDS011;30784;48.490;9.688;2022-07-23T07:33:42;6.32;;;3.40;;
45043;SDS011;30784;48.490;9.688;2022-07-23T07:36:08;7.47;;;3.58;;
45043;SDS011;30784;48.490;9.688;2022-07-23T07:38:34;6.80;;;3.58;;
45043;SDS011;30784;48.490;9.688;2022-07-23T07:40:59;6.82;;;3.70;;
45043;SDS011;30784;48.490;9.688;2022-07-23T07:43:25;7.63;;;3.60;;
45043;SDS011;30784;48.490;9.688;2022-07-23T07:45:51;7.68;;;3.38;;
45043;SDS011;30784;48.490;9.688;2022-07-23T07:48:16;7.43;;;3.90;;
45043;SDS011;30784;48.490;9.688;2022-07-23T07:50:42;7.38;;;3.60;;
45043;SDS011;30784;48.490;9.688;2022-07-23T07:53:08;7.13;;;3.22;;
45043;SDS011;30784;48.490;9.688;2022-07-23T07:55:34;7.03;;;3.20;;
45043;SDS011;30784;48.490;9.688;2022-07-23T07:58:00;7.25;;;3.60;;
45043;SDS011;30784;48.490;9.688;2022-07-23T08:00:25;7.03;;;3.60;;
45043;SDS011;30784;48.490;9.688;2022-07-23T08:02:52;7.90;;;3.58;;
45043;SDS011;30784;48.490;9.688;2022-07-23T08:05:22;8.23;;;3.38;;
45043;SDS011;30784;48.490;9.688;2022-07-23T08:07:49;6.68;;;3.50;;
45043;SDS011;30784;48.490;9.688;2022-07-23T08:10:15;6.80;;;3.20;;
45043;SDS011;30784;48.490;9.688;2022-07-23T08:12:42;7.38;;;3.58;;
45043;SDS011;30784;48.490;9.688;2022-07-23T08:15:10;6.22;;;3.45;;
45043;SDS011;30784;48.490;9.688;2022-07-23T08:17:36;7.00;;;3.42;;
45043;SDS011;30784;48.490;9.688;2022-07-23T08:20:03;7.22;;;3.65;;
45043;SDS011;30784;48.490;9.688;2022-07-23T08:22:49;6.22;;;2.90;;
45043;SDS011;30784;48.490;9.688;2022-07-23T08:25:20;7.20;;;3.60;;
45043;SDS011;30784;48.490;9.688;2022-07-23T08:28:06;7.45;;;3.47;;
45043;SDS011;30784;48.490;9.688;2022-07-23T08:30:34;6.35;;;3.22;;
45043;SDS011;30784;48.490;9.688;2022-07-23T08:35:33;6.10;;;3.15;;
45043;SDS011;30784;48.490;9.688;2022-07-23T08:38:03;6.95;;;3.40;;
45043;SDS011;30784;48.490;9.688;2022-07-23T08:40:31;6.88;;;3.38;;
45043;SDS011;30784;48.490;9.688;2022-07-23T08:42:58;7.63;;;3.65;;
45043;SDS011;30784;48.490;9.688;2022-07-23T08:45:25;6.75;;;3.30;;
45043;SDS011;30784;48.490;9.688;2022-07-23T08:47:53;6.65;;;3.22;;
45043;SDS011;30784;48.490;9.688;2022-07-23T08:50:20;6.90;;;3.58;;
45043;SDS011;30784;48.490;9.688;2022-07-23T08:52:50;7.72;;;3.42;;
45043;SDS011;30784;48.490;9.688;2022-07-23T08:55:18;6.72;;;3.40;;
45043;SDS011;30784;48.490;9.688;2022-07-23T08:57:49;6.57;;;3.70;;
45043;SDS011;30784;48.490;9.688;2022-07-23T09:00:16;6.53;;;3.63;;
45043;SDS011;30784;48.490;9.688;2022-07-23T09:02:44;6.93;;;3.45;;
45043;SDS011;30784;48.490;9.688;2022-07-23T09:05:10;7.45;;;3.88;;
45043;SDS011;30784;48.490;9.688;2022-07-23T09:07:37;7.18;;;3.55;;
45043;SDS011;30784;48.490;9.688;2022-07-23T09:10:23;7.63;;;3.80;;
45043;SDS011;30784;48.490;9.688;2022-07-23T09:12:48;7.15;;;3.67;;
45043;SDS011;30784;48.490;9.688;2022-07-23T09:15:14;7.20;;;3.35;;
45043;SDS011;30784;48.490;9.688;2022-07-23T09:17:40;6.65;;;3.50;;
45043;SDS011;30784;48.490;9.688;2022-07-23T09:20:16;7.55;;;3.90;;
45043;SDS011;30784;48.490;9.688;2022-07-23T09:22:45;7.53;;;4.00;;
45043;SDS011;30784;48.490;9.688;2022-07-23T09:30:24;6.53;;;3.42;;
45043;SDS011;30784;48.490;9.688;2022-07-23T09:33:11;7.50;;;4.10;;
45043;SDS011;30784;48.490;9.688;2022-07-23T09:35:48;6.47;;;3.40;;
45043;SDS011;30784;48.490;9.688;2022-07-23T09:38:16;8.02;;;3.50;;
45043;SDS011;30784;48.490;9.688;2022-07-23T09:40:43;6.20;;;3.15;;
45043;SDS011;30784;48.490;9.688;2022-07-23T09:43:10;9.68;;;5.88;;
45043;SDS011;30784;48.490;9.688;2022-07-23T09:45:37;8.05;;;4.63;;
45043;SDS011;30784;48.490;9.688;2022-07-23T09:48:11;7.43;;;4.03;;
45043;SDS011;30784;48.490;9.688;2022-07-23T09:50:41;7.15;;;4.15;;
45043;SDS011;30784;48.490;9.688;2022-07-23T09:53:08;7.40;;;3.78;;
45043;SDS011;30784;48.490;9.688;2022-07-23T09:55:35;8.07;;;3.50;;
45043;SDS011;30784;48.490;9.688;2022-07-23T10:00:42;6.85;;;3.53;;
45043;SDS011;30784;48.490;9.688;2022-07-23T10:03:09;6.85;;;3.40;;
45043;SDS011;30784;48.490;9.688;2022-07-23T10:05:37;6.82;;;3.80;;
45043;SDS011;30784;48.490;9.688;2022-07-23T10:08:04;6.95;;;3.70;;
45043;SDS011;30784;48.490;9.688;2022-07-23T10:10:33;7.22;;;3.78;;
45043;SDS011;30784;48.490;9.688;2022-07-23T10:12:59;8.45;;;4.15;;
45043;SDS011;30784;48.490;9.688;2022-07-23T10:15:43;8.30;;;4.07;;
45043;SDS011;30784;48.490;9.688;2022-07-23T10:18:09;7.20;;;3.95;;
45043;SDS011;30784;48.490;9.688;2022-07-23T10:20:37;7.20;;;3.80;;
45043;SDS011;30784;48.490;9.688;2022-07-23T10:23:12;6.88;;;3.67;;
45043;SDS011;30784;48.490;9.688;2022-07-23T10:26:27;7.22;;;3.65;;
45043;SDS011;30784;48.490;9.688;2022-07-23T10:29:10;8.50;;;4.57;;
45043;SDS011;30784;48.490;9.688;2022-07-23T10:32:01;7.88;;;4.28;;
45043;SDS011;30784;48.490;9.688;2022-07-23T10:37:32;6.80;;;3.92;;
45043;SDS011;30784;48.490;9.688;2022-07-23T10:40:19;7.50;;;3.65;;
45043;SDS011;30784;48.490;9.688;2022-07-23T10:42:48;6.85;;;4.10;;
45043;SDS011;30784;48.490;9.688;2022-07-23T10:45:33;7.70;;;4.32;;
45043;SDS011;30784;48.490;9.688;2022-07-23T10:48:45;6.35;;;3.67;;
45043;SDS011;30784;48.490;9.688;2022-07-23T10:51:05;8.13;;;4.10;;
45043;SDS011;30784;48.490;9.688;2022-07-23T10:56:17;7.68;;;4.53;;
45043;SDS011;30784;48.490;9.688;2022-07-23T10:59:03;9.90;;;6.18;;
45043;SDS011;30784;48.490;9.688;2022-07-23T11:01:36;7.90;;;4.38;;
45043;SDS011;30784;48.490;9.688;2022-07-23T11:04:03;7.93;;;3.72;;
45043;SDS011;30784;48.490;9.688;2022-07-23T11:09:26;8.10;;;4.95;;
45043;SDS011;30784;48.490;9.688;2022-07-23T11:14:59;6.88;;;4.20;;
45043;SDS011;30784;48.490;9.688;2022-07-23T11:17:28;7.40;;;4.10;;
45043;SDS011;30784;48.490;9.688;2022-07-23T11:25:04;9.52;;;4.82;;
45043;SDS011;30784;48.490;9.688;2022-07-23T11:28:31;8.15;;;4.43;;
45043;SDS011;30784;48.490;9.688;2022-07-23T11:30:38;7.32;;;4.53;;
45043;SDS011;30784;48.490;9.688;2022-07-23T11:35:38;8.20;;;4.80;;
45043;SDS011;30784;48.490;9.688;2022-07-23T11:38:06;9.18;;;4.80;;
45043;SDS011;30784;48.490;9.688;2022-07-23T11:40:41;7.78;;;4.30;;
45043;SDS011;30784;48.490;9.688;2022-07-23T11:43:09;7.28;;;4.28;;
45043;SDS011;30784;48.490;9.688;2022-07-23T11:45:40;7.72;;;4.68;;
45043;SDS011;30784;48.490;9.688;2022-07-23T11:50:47;8.10;;;4.65;;
45043;SDS011;30784;48.490;9.688;2022-07-23T11:53:13;7.20;;;4.50;;
45043;SDS011;30784;48.490;9.688;2022-07-23T11:55:46;8.30;;;5.50;;
45043;SDS011;30784;48.490;9.688;2022-07-23T11:58:11;7.68;;;4.80;;
45043;SDS011;30784;48.490;9.688;2022-07-23T12:00:39;7.32;;;4.25;;
45043;SDS011;30784;48.490;9.688;2022-07-23T12:03:06;7.15;;;4.38;;
45043;SDS011;30784;48.490;9.688;2022-07-23T12:05:33;7.30;;;4.22;;
45043;SDS011;30784;48.490;9.688;2022-07-23T12:08:00;7.85;;;4.20;;
45043;SDS011;30784;48.490;9.688;2022-07-23T12:10:38;7.45;;;4.90;;
45043;SDS011;30784;48.490;9.688;2022-07-23T12:13:09;7.05;;;4.35;;
45043;SDS011;30784;48.490;9.688;2022-07-23T12:15:40;7.05;;;3.88;;
45043;SDS011;30784;48.490;9.688;2022-07-23T12:18:14;7.63;;;4.50;;
45043;SDS011;30784;48.490;9.688;2022-07-23T12:20:42;7.82;;;4.68;;
45043;SDS011;30784;48.490;9.688;2022-07-23T12:23:11;7.72;;;4.40;;
45043;SDS011;30784;48.490;9.688;2022-07-23T12:25:39;8.25;;;4.30;;
45043;SDS011;30784;48.490;9.688;2022-07-23T12:28:16;6.88;;;4.15;;
45043;SDS011;30784;48.490;9.688;2022-07-23T12:30:47;7.82;;;4.35;;
45043;SDS011;30784;48.490;9.688;2022-07-23T12:33:18;7.32;;;4.10;;
45043;SDS011;30784;48.490;9.688;2022-07-23T12:35:46;7.03;;;4.15;;
45043;SDS011;30784;48.490;9.688;2022-07-23T12:38:17;7.32;;;3.95;;
45043;SDS011;30784;48.490;9.688;2022-07-23T12:43:25;7.10;;;4.32;;
45043;SDS011;30784;48.490;9.688;2022-07-23T12:51:17;8.35;;;4.05;;
45043;SDS011;30784;48.490;9.688;2022-07-23T12:56:31;7.65;;;4.45;;
45043;SDS011;30784;48.490;9.688;2022-07-23T13:01:36;7.75;;;4.50;;
45043;SDS011;30784;48.490;9.688;2022-07-23T13:06:29;7.05;;;4.10;;
45043;SDS011;30784;48.490;9.688;2022-07-23T13:09:00;7.45;;;4.22;;
45043;SDS011;30784;48.490;9.688;2022-07-23T13:11:27;7.30;;;3.90;;
45043;SDS011;30784;48.490;9.688;2022-07-23T13:13:52;7.40;;;4.20;;
45043;SDS011;30784;48.490;9.688;2022-07-23T13:16:18;6.82;;;3.97;;
45043;SDS011;30784;48.490;9.688;2022-07-23T13:18:44;7.55;;;4.18;;
45043;SDS011;30784;48.490;9.688;2022-07-23T13:21:10;7.68;;;4.60;;
45043;SDS011;30784;48.490;9.688;2022-07-23T13:23:36;8.32;;;4.80;;
45043;SDS011;30784;48.490;9.688;2022-07-23T13:26:02;7.78;;;4.20;;
45043;SDS011;30784;48.490;9.688;2022-07-23T13:28:27;7.60;;;4.40;;
45043;SDS011;30784;48.490;9.688;2022-07-23T13:30:53;7.20;;;4.32;;
45043;SDS011;30784;48.490;9.688;2022-07-23T13:33:20;8.02;;;4.85;;
45043;SDS011;30784;48.490;9.688;2022-07-23T13:35:47;7.30;;;4.13;;
45043;SDS011;30784;48.490;9.688;2022-07-23T13:38:13;7.85;;;4.68;;
45043;SDS011;30784;48.490;9.688;2022-07-23T13:40:40;7.32;;;4.18;;
45043;SDS011;30784;48.490;9.688;2022-07-23T13:43:09;7.57;;;4.25;;
45043;SDS011;30784;48.490;9.688;2022-07-23T13:45:36;7.63;;;4.10;;
45043;SDS011;30784;48.490;9.688;2022-07-23T13:48:03;7.25;;;4.03;;
45043;SDS011;30784;48.490;9.688;2022-07-23T13:50:30;6.90;;;4.03;;
45043;SDS011;30784;48.490;9.688;2022-07-23T13:52:55;8.02;;;4.50;;
45043;SDS011;30784;48.490;9.688;2022-07-23T13:55:21;7.15;;;4.07;;
45043;SDS011;30784;48.490;9.688;2022-07-23T13:57:47;8.20;;;4.38;;
45043;SDS011;30784;48.490;9.688;2022-07-23T14:00:14;7.50;;;4.20;;
45043;SDS011;30784;48.490;9.688;2022-07-23T14:02:40;7.07;;;3.97;;
45043;SDS011;30784;48.490;9.688;2022-07-23T14:05:06;6.85;;;4.10;;
45043;SDS011;30784;48.490;9.688;2022-07-23T14:07:34;7.47;;;3.97;;
45043;SDS011;30784;48.490;9.688;2022-07-23T14:10:00;7.40;;;3.97;;
45043;SDS011;30784;48.490;9.688;2022-07-23T14:12:27;7.30;;;4.15;;
45043;SDS011;30784;48.490;9.688;2022-07-23T14:14:53;7.32;;;3.97;;
45043;SDS011;30784;48.490;9.688;2022-07-23T14:17:19;7.22;;;3.90;;
45043;SDS011;30784;48.490;9.688;2022-07-23T14:19:44;6.82;;;3.72;;
45043;SDS011;30784;48.490;9.688;2022-07-23T14:22:10;7.32;;;4.13;;
45043;SDS011;30784;48.490;9.688;2022-07-23T14:24:36;7.20;;;4.20;;
45043;SDS011;30784;48.490;9.688;2022-07-23T14:27:02;7.10;;;4.05;;
45043;SDS011;30784;48.490;9.688;2022-07-23T14:29:29;7.47;;;4.18;;
45043;SDS011;30784;48.490;9.688;2022-07-23T14:31:55;7.43;;;4.13;;
45043;SDS011;30784;48.490;9.688;2022-07-23T14:34:21;9.48;;;5.60;;
45043;SDS011;30784;48.490;9.688;2022-07-23T14:36:46;8.00;;;4.50;;
45043;SDS011;30784;48.490;9.688;2022-07-23T14:39:12;9.65;;;4.13;;
45043;SDS011;30784;48.490;9.688;2022-07-23T14:41:38;7.72;;;4.38;;
45043;SDS011;30784;48.490;9.688;2022-07-23T14:44:04;7.68;;;4.10;;
45043;SDS011;30784;48.490;9.688;2022-07-23T14:46:31;7.38;;;4.00;;
45043;SDS011;30784;48.490;9.688;2022-07-23T14:48:56;7.13;;;4.00;;
45043;SDS011;30784;48.490;9.688;2022-07-23T14:51:22;7.55;;;3.78;;
45043;SDS011;30784;48.490;9.688;2022-07-23T14:53:48;7.00;;;3.90;;
45043;SDS011;30784;48.490;9.688;2022-07-23T14:56:13;9.15;;;4.40;;
45043;SDS011;30784;48.490;9.688;2022-07-23T14:58:39;7.75;;;4.40;;
45043;SDS011;30784;48.490;9.688;2022-07-23T15:01:05;7.70;;;4.72;;
45043;SDS011;30784;48.490;9.688;2022-07-23T15:03:31;7.10;;;4.10;;
45043;SDS011;30784;48.490;9.688;2022-07-23T15:05:57;6.85;;;4.05;;
45043;SDS011;30784;48.490;9.688;2022-07-23T15:08:23;7.65;;;4.18;;
45043;SDS011;30784;48.490;9.688;2022-07-23T15:10:49;6.68;;;3.72;;
45043;SDS011;30784;48.490;9.688;2022-07-23T15:13:15;6.25;;;3.58;;
45043;SDS011;30784;48.490;9.688;2022-07-23T15:15:40;7.22;;;4.43;;
45043;SDS011;30784;48.490;9.688;2022-07-23T15:18:06;7.65;;;4.43;;
45043;SDS011;30784;48.490;9.688;2022-07-23T15:20:32;7.28;;;3.80;;
45043;SDS011;30784;48.490;9.688;2022-07-23T15:22:58;6.70;;;3.92;;
45043;SDS011;30784;48.490;9.688;2022-07-23T15:25:24;6.85;;;3.97;;
45043;SDS011;30784;48.490;9.688;2022-07-23T15:27:49;7.55;;;3.70;;
45043;SDS011;30784;48.490;9.688;2022-07-23T15:30:15;6.93;;;3.92;;
45043;SDS011;30784;48.490;9.688;2022-07-23T15:32:41;7.38;;;4.00;;
45043;SDS011;30784;48.490;9.688;2022-07-23T15:35:06;7.15;;;4.15;;
45043;SDS011;30784;48.490;9.688;2022-07-23T15:37:33;7.95;;;4.82;;
45043;SDS011;30784;48.490;9.688;2022-07-23T15:39:59;7.70;;;4.15;;
45043;SDS011;30784;48.490;9.688;2022-07-23T15:42:26;7.00;;;4.20;;